Terminal Aerodrome Forecast
Issued by NWS Spokane, WA

Home | Current Version | Previous Version | Text Only | Print | Product List | Glossary On
Versions: 1 2 3 4 5 6 7 8 9 10 11 12 13 14 15
000
FTUS46 KOTX 191142 CCA
TAFEAT
TAF COR
KEAT 191142Z 1912/2012 31006KT P6SM FEW100 BKN150 OVC200
     FM192000 29012G20KT P6SM VCSH SCT070 OVC100
     FM192300 29020G30KT P6SM BKN090
     FM200300 30012KT P6SM FEW090=

USA.gov is the U.S. government's official web portal to all federal, state and local government web resources and services.